createdAt,value
2023-03-05T00:02:07.070Z,5.80
2023-03-05T00:07:12.619Z,5.30
2023-03-05T00:12:17.496Z,7.20
2023-03-05T00:17:20.814Z,5.30
2023-03-05T00:22:24.133Z,4.50
2023-03-05T00:27:27.375Z,6.50
2023-03-05T00:32:31.334Z,3.30
2023-03-05T00:37:34.699Z,11.30
2023-03-05T00:42:39.022Z,9.00
2023-03-05T00:47:42.240Z,6.40
2023-03-05T00:52:45.577Z,8.30
2023-03-05T00:57:48.875Z,6.50
2023-03-05T01:02:52.253Z,5.70
2023-03-05T01:07:56.865Z,5.30
2023-03-05T01:13:00.703Z,7.60
2023-03-05T01:18:04.056Z,5.20
2023-03-05T01:23:07.697Z,6.10
2023-03-05T01:28:11.318Z,4.90
2023-03-05T01:33:14.617Z,5.60
2023-03-05T01:38:18.419Z,6.20
2023-03-05T01:43:30.401Z,4.30
2023-03-05T01:48:33.745Z,9.00
2023-03-05T01:53:37.437Z,5.70
2023-03-05T01:58:41.682Z,7.70
2023-03-05T02:03:45.667Z,8.40
2023-03-05T02:08:49.017Z,7.30
2023-03-05T02:13:52.768Z,9.90
2023-03-05T02:18:56.104Z,8.50
2023-03-05T02:23:59.389Z,9.30
2023-03-05T02:29:05.385Z,6.90
2023-03-05T02:34:08.738Z,8.20
2023-03-05T02:39:12.025Z,10.30
2023-03-05T02:44:15.426Z,8.70
2023-03-05T02:49:18.796Z,9.90
2023-03-05T02:54:22.171Z,12.20
2023-03-05T02:59:25.723Z,9.10
2023-03-05T03:04:29.248Z,8.40
2023-03-05T03:09:36.236Z,7.30
2023-03-05T03:14:42.947Z,9.50
2023-03-05T03:19:47.057Z,6.90
2023-03-05T03:24:50.290Z,5.60
2023-03-05T03:29:53.523Z,8.30
2023-03-05T03:34:57.991Z,10.40
2023-03-05T03:40:01.366Z,9.40
2023-03-05T03:45:05.295Z,7.40
2023-03-05T03:50:09.378Z,9.30
2023-03-05T03:55:12.712Z,8.50
2023-03-05T04:00:16.685Z,8.90
2023-03-05T04:05:20.165Z,9.90
2023-03-05T04:10:23.479Z,10.50
2023-03-05T04:15:26.910Z,6.70
2023-03-05T04:20:30.137Z,9.00
2023-03-05T04:25:34.079Z,11.00
2023-03-05T04:30:37.425Z,9.80
2023-03-05T04:35:40.967Z,5.80
2023-03-05T04:40:45.513Z,7.50
2023-03-05T04:45:48.801Z,15.40
2023-03-05T04:50:52.218Z,8.50
2023-03-05T04:55:56.849Z,7.10
2023-03-05T05:01:05.053Z,8.40
2023-03-05T05:06:08.365Z,9.40
2023-03-05T05:11:15.061Z,10.60
2023-03-05T05:16:18.973Z,7.00
2023-03-05T05:21:22.474Z,9.40
2023-03-05T05:26:26.373Z,8.20
2023-03-05T05:31:29.636Z,10.60
2023-03-05T05:36:32.887Z,5.30
2023-03-05T05:41:36.179Z,7.40
2023-03-05T05:46:39.532Z,9.80
2023-03-05T05:51:42.948Z,7.60
2023-03-05T05:56:46.164Z,5.30
2023-03-05T06:01:49.480Z,7.10
2023-03-05T06:06:52.691Z,7.10
2023-03-05T06:11:57.112Z,9.20
2023-03-05T06:17:00.356Z,11.00
2023-03-05T06:22:03.670Z,6.90
2023-03-05T06:27:07.084Z,7.90
2023-03-05T06:32:10.388Z,5.80
2023-03-05T06:37:13.716Z,9.30
2023-03-05T06:42:19.807Z,9.50
2023-03-05T06:47:23.098Z,10.60
2023-03-05T06:52:26.513Z,10.60
2023-03-05T06:57:29.909Z,10.00
2023-03-05T07:02:34.110Z,8.90
2023-03-05T07:07:37.736Z,7.20
2023-03-05T07:12:43.569Z,7.60
2023-03-05T07:17:47.402Z,7.00
2023-03-05T07:22:51.009Z,5.70
2023-03-05T07:27:57.606Z,6.10
2023-03-05T07:33:03.599Z,5.50
2023-03-05T07:38:07.651Z,4.80
2023-03-05T07:43:13.986Z,4.60
2023-03-05T07:48:21.485Z,5.70
2023-03-05T07:53:25.623Z,6.60
2023-03-05T07:58:29.959Z,5.10
2023-03-05T08:03:33.409Z,3.30
2023-03-05T08:08:37.464Z,4.20
2023-03-05T08:13:40.738Z,4.70
2023-03-05T08:18:45.039Z,5.80
2023-03-05T08:23:48.665Z,6.30
2023-03-05T08:29:03.783Z,8.40
2023-03-05T08:34:07.824Z,7.40
2023-03-05T08:39:11.284Z,7.80
2023-03-05T08:44:14.617Z,13.30
2023-03-05T08:49:17.962Z,6.60
2023-03-05T08:54:21.303Z,6.60
2023-03-05T08:59:24.975Z,6.60
2023-03-05T09:04:28.223Z,6.80
2023-03-05T09:09:33.624Z,8.20
2023-03-05T09:14:37.117Z,6.60
2023-03-05T09:19:40.448Z,7.10
2023-03-05T09:24:44.645Z,5.70
2023-03-05T09:29:48.594Z,6.60
2023-03-05T09:34:52.111Z,5.80
2023-03-05T09:39:58.286Z,4.50
2023-03-05T09:45:22.450Z,4.70
2023-03-05T09:50:33.475Z,3.10
2023-03-05T09:55:48.826Z,6.00
2023-03-05T10:01:00.484Z,4.80
2023-03-05T10:06:07.153Z,6.40
2023-03-05T10:11:35.224Z,4.40
2023-03-05T10:17:13.837Z,4.40
2023-03-05T10:22:28.609Z,5.50
2023-03-05T10:27:48.633Z,4.90
2023-03-05T10:33:13.817Z,3.90
2023-03-05T10:38:42.004Z,1.80
2023-03-05T10:43:57.584Z,2.80
2023-03-05T10:49:18.994Z,3.00
2023-03-05T10:54:31.931Z,4.70
2023-03-05T10:59:35.193Z,4.50
2023-03-05T11:04:40.940Z,4.20
2023-03-05T11:10:03.094Z,5.60
2023-03-05T11:15:15.216Z,4.90
2023-03-05T11:20:27.434Z,3.30
2023-03-05T11:25:32.959Z,2.00
2023-03-05T11:30:37.230Z,4.70
2023-03-05T11:35:43.552Z,2.20
2023-03-05T11:40:47.911Z,3.70
2023-03-05T11:46:01.982Z,3.90
2023-03-05T11:51:28.519Z,4.10
2023-03-05T11:56:37.031Z,6.50
2023-03-05T12:02:04.445Z,4.20
2023-03-05T12:07:16.417Z,3.30
2023-03-05T12:12:42.562Z,6.40
2023-03-05T12:18:14.925Z,6.20
2023-03-05T12:23:21.553Z,7.30
2023-03-05T12:28:34.465Z,9.10
2023-03-05T12:33:43.008Z,9.00
2023-03-05T12:38:56.730Z,6.00
2023-03-05T12:44:26.092Z,5.00
2023-03-05T12:49:29.845Z,5.70
2023-03-05T12:54:41.376Z,3.60
2023-03-05T13:00:22.106Z,6.80
2023-03-05T13:05:29.737Z,4.00
2023-03-05T13:10:33.157Z,3.90
2023-03-05T13:15:36.494Z,2.50
2023-03-05T13:20:42.915Z,2.50
2023-03-05T13:26:07.020Z,2.40
2023-03-05T13:31:18.868Z,2.10
2023-03-05T13:36:25.036Z,4.20
2023-03-05T13:41:29.879Z,3.70
2023-03-05T13:46:38.994Z,4.10
2023-03-05T13:51:48.824Z,6.20
2023-03-05T13:57:08.687Z,3.90
2023-03-05T14:02:21.039Z,7.00
2023-03-05T14:07:37.499Z,2.90
2023-03-05T14:12:44.021Z,4.90
2023-03-05T14:17:51.807Z,4.20
2023-03-05T14:23:26.464Z,2.00
2023-03-05T14:28:30.301Z,3.90
2023-03-05T14:33:33.914Z,4.00
2023-03-05T14:38:41.375Z,6.20
2023-03-05T14:43:45.084Z,6.90
2023-03-05T14:48:48.709Z,7.30
2023-03-05T14:53:52.386Z,7.50
2023-03-05T14:58:57.768Z,8.80
2023-03-05T15:04:01.436Z,3.40
2023-03-05T15:09:06.852Z,4.80
2023-03-05T15:14:11.606Z,3.60
2023-03-05T15:19:15.145Z,5.00
2023-03-05T15:24:18.511Z,2.90
2023-03-05T15:29:21.750Z,5.00
2023-03-05T15:34:25.036Z,4.80
2023-03-05T15:39:29.657Z,5.90
2023-03-05T15:44:33.022Z,4.80
2023-03-05T15:49:36.415Z,6.10
2023-03-05T15:54:40.267Z,10.20
2023-03-05T15:59:43.575Z,7.50
2023-03-05T16:04:46.928Z,7.00
2023-03-05T16:09:52.056Z,7.30
2023-03-05T16:14:55.554Z,9.00
2023-03-05T16:19:58.921Z,9.70
2023-03-05T16:25:02.292Z,7.60
2023-03-05T16:30:07.502Z,15.80
2023-03-05T16:35:14.706Z,16.20
2023-03-05T16:40:19.062Z,22.10
2023-03-05T16:45:25.203Z,15.30
2023-03-05T16:50:28.673Z,12.50
2023-03-05T16:55:32.229Z,12.90
2023-03-05T17:00:36.612Z,15.40
2023-03-05T17:05:40.170Z,13.00
2023-03-05T17:10:44.288Z,9.80
2023-03-05T17:15:47.770Z,11.00
2023-03-05T17:20:51.099Z,13.80
2023-03-05T17:25:54.466Z,14.10
2023-03-05T17:31:03.089Z,15.40
2023-03-05T17:36:06.883Z,20.80
2023-03-05T17:41:10.949Z,16.60
2023-03-05T17:46:14.460Z,15.50
2023-03-05T17:51:18.420Z,22.10
2023-03-05T17:56:23.093Z,19.30
2023-03-05T18:01:30.325Z,21.50
2023-03-05T18:06:33.776Z,22.70
2023-03-05T18:11:38.238Z,22.40
2023-03-05T18:16:41.718Z,20.70
2023-03-05T18:21:45.183Z,24.50
2023-03-05T18:26:48.714Z,22.20
2023-03-05T18:31:52.006Z,20.20
2023-03-05T18:36:56.448Z,16.70
2023-03-05T18:42:00.746Z,13.90
2023-03-05T18:47:04.240Z,17.00
2023-03-05T18:52:07.729Z,12.80
2023-03-05T18:57:11.110Z,17.20
2023-03-05T19:02:16.512Z,19.50
2023-03-05T19:07:19.852Z,14.60
2023-03-05T19:12:32.412Z,12.70
2023-03-05T19:17:35.790Z,14.10
2023-03-05T19:22:39.745Z,13.70
2023-03-05T19:27:43.170Z,26.10
2023-03-05T19:32:47.758Z,18.50
2023-03-05T19:37:51.347Z,17.70
2023-03-05T19:42:54.884Z,20.40
2023-03-05T19:47:58.165Z,15.70
2023-03-05T19:53:01.869Z,14.70
2023-03-05T19:58:05.161Z,14.80
2023-03-05T20:03:08.516Z,14.50
2023-03-05T20:08:11.841Z,11.30
2023-03-05T20:13:15.107Z,14.70
2023-03-05T20:18:18.642Z,16.00
2023-03-05T20:23:22.435Z,12.80
2023-03-05T20:28:28.628Z,18.30
2023-03-05T20:33:31.970Z,19.60
2023-03-05T20:38:35.160Z,21.70
2023-03-05T20:43:44.908Z,19.60
2023-03-05T20:48:50.755Z,17.50
2023-03-05T20:53:58.927Z,13.90
2023-03-05T20:59:05.318Z,16.00
2023-03-05T21:04:09.133Z,14.10
2023-03-05T21:09:12.460Z,15.50
2023-03-05T21:14:15.766Z,15.50
2023-03-05T21:19:19.019Z,15.60
2023-03-05T21:24:24.492Z,13.60
2023-03-05T21:29:27.790Z,16.80
2023-03-05T21:34:31.112Z,15.80
2023-03-05T21:39:34.700Z,16.20
2023-03-05T21:44:39.137Z,17.20
2023-03-05T21:49:42.496Z,16.70
2023-03-05T21:54:46.333Z,24.30
2023-03-05T21:59:49.764Z,25.80
2023-03-05T22:04:53.061Z,28.40
2023-03-05T22:09:57.325Z,22.20
2023-03-05T22:15:00.722Z,21.20
2023-03-05T22:20:05.000Z,23.60
2023-03-05T22:25:09.247Z,27.00
2023-03-05T22:30:15.832Z,22.70
2023-03-05T22:35:19.179Z,27.50
2023-03-05T22:40:23.289Z,21.50
2023-03-05T22:45:29.222Z,12.30
2023-03-05T22:50:32.583Z,16.20
2023-03-05T22:55:40.387Z,19.10
2023-03-05T23:00:43.724Z,18.70
2023-03-05T23:05:47.156Z,17.70
2023-03-05T23:10:50.580Z,13.60
2023-03-05T23:15:53.841Z,16.10
2023-03-05T23:20:57.246Z,13.50
2023-03-05T23:26:00.658Z,10.70
2023-03-05T23:31:04.651Z,11.00
2023-03-05T23:36:08.135Z,15.90
2023-03-05T23:41:11.467Z,11.70
2023-03-05T23:46:15.893Z,11.70
2023-03-05T23:51:19.524Z,11.80
2023-03-05T23:56:22.850Z,11.60
